createdAt,value
2023-03-01T00:00:18.605Z,99516.00
2023-03-01T00:02:49.461Z,99528.00
2023-03-01T00:05:20.394Z,99517.00
2023-03-01T00:07:54.615Z,99526.00
2023-03-01T00:10:27.613Z,99522.00
2023-03-01T00:12:58.560Z,99524.00
2023-03-01T00:15:29.495Z,99515.00
2023-03-01T00:18:00.542Z,99521.00
2023-03-01T00:20:31.499Z,99514.00
2023-03-01T00:23:02.415Z,99523.00
2023-03-01T00:25:33.302Z,99523.00
2023-03-01T00:28:04.188Z,99528.00
2023-03-01T00:30:35.255Z,99524.00
2023-03-01T00:33:06.198Z,99520.00
2023-03-01T00:35:37.553Z,99524.00
2023-03-01T00:38:09.133Z,99524.00
2023-03-01T00:40:40.035Z,99519.00
2023-03-01T00:43:11.319Z,99525.00
2023-03-01T00:45:42.245Z,99528.00
2023-03-01T00:48:14.131Z,99524.00
2023-03-01T00:50:45.074Z,99520.00
2023-03-01T00:53:15.947Z,99523.00
2023-03-01T00:55:46.871Z,99519.00
2023-03-01T00:58:17.703Z,99523.00
2023-03-01T01:00:48.587Z,99530.00
2023-03-01T01:03:20.383Z,99516.00
2023-03-01T01:05:55.134Z,99523.00
2023-03-01T01:08:26.061Z,99525.00
2023-03-01T01:10:56.916Z,99524.00
2023-03-01T01:13:27.909Z,99517.00
2023-03-01T01:16:02.837Z,99514.00
2023-03-01T01:18:33.991Z,99520.00
2023-03-01T01:21:12.132Z,99522.00
2023-03-01T01:23:45.039Z,99520.00
2023-03-01T01:26:26.652Z,99518.00
2023-03-01T01:28:58.270Z,99512.00
2023-03-01T01:31:29.949Z,99499.00
2023-03-01T01:34:03.469Z,99508.00
2023-03-01T01:36:35.982Z,99491.00
2023-03-01T01:39:06.929Z,99486.00
2023-03-01T01:41:37.851Z,99479.00
2023-03-01T01:44:24.477Z,99480.00
2023-03-01T01:47:21.522Z,99485.00
2023-03-01T01:49:57.555Z,99485.00
2023-03-01T01:52:37.105Z,99481.00
2023-03-01T01:55:17.239Z,99475.00
2023-03-01T01:57:53.560Z,99475.00
2023-03-01T02:00:30.585Z,99472.00
2023-03-01T02:03:07.850Z,99476.00
2023-03-01T02:05:55.234Z,99473.00
2023-03-01T02:08:31.470Z,99470.00
2023-03-01T02:11:05.174Z,99461.00
2023-03-01T02:13:36.878Z,99453.00
2023-03-01T02:16:14.455Z,99447.00
2023-03-01T02:18:46.326Z,99448.00
2023-03-01T02:21:47.018Z,99440.00
2023-03-01T02:24:43.753Z,99462.00
2023-03-01T02:27:14.712Z,99443.00
2023-03-01T02:29:52.410Z,99438.00
2023-03-01T02:32:26.270Z,99430.00
2023-03-01T02:34:57.798Z,99425.00
2023-03-01T02:37:29.240Z,99421.00
2023-03-01T02:40:07.704Z,99421.00
2023-03-01T02:42:58.068Z,99419.00
2023-03-01T02:45:29.074Z,99415.00
2023-03-01T02:48:00.053Z,99425.00
2023-03-01T02:50:30.890Z,99414.00
2023-03-01T02:53:22.755Z,99415.00
2023-03-01T02:55:53.984Z,99408.00
2023-03-01T02:58:24.835Z,99409.00
2023-03-01T03:00:56.647Z,99399.00
2023-03-01T03:03:27.564Z,99398.00
2023-03-01T03:05:59.076Z,99401.00
2023-03-01T03:08:29.992Z,99396.00
2023-03-01T03:11:00.931Z,99395.00
2023-03-01T03:13:31.872Z,99390.00
2023-03-01T03:16:04.645Z,99383.00
2023-03-01T03:18:35.580Z,99395.00
2023-03-01T03:21:13.005Z,99387.00
2023-03-01T03:23:44.850Z,99384.00
2023-03-01T03:26:16.288Z,99392.00
2023-03-01T03:28:47.785Z,99384.00
2023-03-01T03:31:18.849Z,99388.00
2023-03-01T03:33:49.922Z,99383.00
2023-03-01T03:36:24.510Z,99388.00
2023-03-01T03:38:55.482Z,99391.00
2023-03-01T03:41:26.394Z,99391.00
2023-03-01T03:43:57.241Z,99388.00
2023-03-01T03:46:28.174Z,99391.00
2023-03-01T03:48:59.250Z,99388.00
2023-03-01T03:51:30.131Z,99379.00
2023-03-01T03:54:00.988Z,99374.00
2023-03-01T03:56:32.215Z,99378.00
2023-03-01T03:59:03.442Z,99378.00
2023-03-01T04:01:34.382Z,99381.00
2023-03-01T04:04:05.412Z,99370.00
2023-03-01T04:06:36.405Z,99374.00
2023-03-01T04:09:07.322Z,99363.00
2023-03-01T04:11:39.669Z,99364.00
2023-03-01T04:14:11.248Z,99355.00
2023-03-01T04:16:42.167Z,99350.00
2023-03-01T04:19:13.041Z,99354.00
2023-03-01T04:21:43.895Z,99354.00
2023-03-01T04:24:14.822Z,99354.00
2023-03-01T04:26:45.681Z,99355.00
2023-03-01T04:29:16.635Z,99353.00
2023-03-01T04:31:50.259Z,99362.00
2023-03-01T04:34:21.411Z,99359.00
2023-03-01T04:36:52.562Z,99352.00
2023-03-01T04:39:23.500Z,99381.00
2023-03-01T04:41:54.547Z,99348.00
2023-03-01T04:44:25.457Z,99362.00
2023-03-01T04:46:56.363Z,99363.00
2023-03-01T04:49:27.211Z,99357.00
2023-03-01T04:52:05.618Z,99357.00
2023-03-01T04:54:37.174Z,99362.00
2023-03-01T04:57:08.019Z,99353.00
2023-03-01T04:59:38.902Z,99351.00
2023-03-01T05:02:09.762Z,99348.00
2023-03-01T05:04:40.685Z,99354.00
2023-03-01T05:07:14.136Z,99355.00
2023-03-01T05:09:45.072Z,99352.00
2023-03-01T05:12:16.771Z,99349.00
2023-03-01T05:14:47.689Z,99358.00
2023-03-01T05:17:18.570Z,99354.00
2023-03-01T05:19:49.611Z,99356.00
2023-03-01T05:22:21.118Z,99349.00
2023-03-01T05:24:52.906Z,99351.00
2023-03-01T05:27:23.819Z,99352.00
2023-03-01T05:29:54.955Z,99354.00
2023-03-01T05:32:26.418Z,99355.00
2023-03-01T05:34:57.373Z,99357.00
2023-03-01T05:37:29.877Z,99358.00
2023-03-01T05:40:00.752Z,99365.00
2023-03-01T05:42:31.615Z,99360.00
2023-03-01T05:45:02.534Z,99363.00
2023-03-01T05:47:33.426Z,99354.00
2023-03-01T05:50:04.599Z,99360.00
2023-03-01T05:52:35.559Z,99343.00
2023-03-01T05:55:07.815Z,99352.00
2023-03-01T05:57:38.675Z,99340.00
2023-03-01T06:00:12.004Z,99342.00
2023-03-01T06:02:42.981Z,99332.00
2023-03-01T06:05:15.298Z,99335.00
2023-03-01T06:07:46.227Z,99334.00
2023-03-01T06:10:19.118Z,99330.00
2023-03-01T06:12:50.073Z,99333.00
2023-03-01T06:15:21.431Z,99344.00
2023-03-01T06:17:52.762Z,99336.00
2023-03-01T06:20:26.449Z,99345.00
2023-03-01T06:22:57.800Z,99341.00
2023-03-01T06:25:30.258Z,99343.00
2023-03-01T06:28:01.431Z,99374.00
2023-03-01T06:30:33.091Z,99345.00
2023-03-01T06:33:04.200Z,99337.00
2023-03-01T06:35:36.073Z,99342.00
2023-03-01T06:38:08.626Z,99340.00
2023-03-01T06:40:39.530Z,99354.00
2023-03-01T06:43:10.432Z,99350.00
2023-03-01T06:45:41.367Z,99351.00
2023-03-01T06:48:12.309Z,99352.00
2023-03-01T06:50:43.258Z,99352.00
2023-03-01T06:53:14.233Z,99345.00
2023-03-01T06:55:45.124Z,99352.00
2023-03-01T06:58:16.002Z,99351.00
2023-03-01T07:00:46.909Z,99345.00
2023-03-01T07:03:17.789Z,99353.00
2023-03-01T07:05:54.808Z,99347.00
2023-03-01T07:08:25.703Z,99347.00
2023-03-01T07:11:00.394Z,99339.00
2023-03-01T07:13:31.330Z,99344.00
2023-03-01T07:16:02.443Z,99339.00
2023-03-01T07:18:33.668Z,99337.00
2023-03-01T07:21:13.976Z,99340.00
2023-03-01T07:23:44.891Z,99332.00
2023-03-01T07:26:15.797Z,99334.00
2023-03-01T07:28:46.677Z,99334.00
2023-03-01T07:31:17.594Z,99333.00
2023-03-01T07:33:48.480Z,99331.00
2023-03-01T07:36:19.359Z,99324.00
2023-03-01T07:38:50.480Z,99326.00
2023-03-01T07:41:21.558Z,99322.00
2023-03-01T07:43:52.497Z,99324.00
2023-03-01T07:46:23.493Z,99324.00
2023-03-01T07:48:54.623Z,99311.00
2023-03-01T07:51:25.728Z,99311.00
2023-03-01T07:53:56.615Z,99312.00
2023-03-01T07:56:27.675Z,99314.00
2023-03-01T07:59:00.886Z,99311.00
2023-03-01T08:01:31.832Z,99311.00
2023-03-01T08:04:02.986Z,99308.00
2023-03-01T08:06:36.298Z,99293.00
2023-03-01T08:09:07.701Z,99304.00
2023-03-01T08:11:38.657Z,99300.00
2023-03-01T08:14:11.497Z,99300.00
2023-03-01T08:16:42.430Z,99294.00
2023-03-01T08:19:13.728Z,99291.00
2023-03-01T08:21:44.964Z,99305.00
2023-03-01T08:24:15.933Z,99295.00
2023-03-01T08:26:47.027Z,99289.00
2023-03-01T08:29:17.944Z,99291.00
2023-03-01T08:31:49.702Z,99294.00
2023-03-01T08:34:20.726Z,99284.00
2023-03-01T08:36:53.190Z,99288.00
2023-03-01T08:39:24.186Z,99286.00
2023-03-01T08:41:55.118Z,99292.00
2023-03-01T08:44:26.201Z,99289.00
2023-03-01T08:46:57.147Z,99279.00
2023-03-01T08:49:28.029Z,99280.00
2023-03-01T08:51:59.021Z,99271.00
2023-03-01T08:54:29.984Z,99288.00
2023-03-01T08:57:03.601Z,99274.00
2023-03-01T08:59:38.232Z,99273.00
2023-03-01T09:02:18.747Z,99264.00
2023-03-01T09:04:49.659Z,99258.00
2023-03-01T09:07:20.551Z,99263.00
2023-03-01T09:09:54.383Z,99259.00
2023-03-01T09:12:26.080Z,99254.00
2023-03-01T09:14:56.966Z,99247.00
2023-03-01T09:17:27.854Z,99250.00
2023-03-01T09:19:58.734Z,99241.00
2023-03-01T09:22:29.571Z,99234.00
2023-03-01T09:25:01.500Z,99220.00
2023-03-01T09:27:32.394Z,99251.00
2023-03-01T09:30:03.996Z,99224.00
2023-03-01T09:32:34.927Z,99223.00
2023-03-01T09:35:06.988Z,99222.00
2023-03-01T09:37:38.843Z,99216.00
2023-03-01T09:40:24.414Z,99230.00
2023-03-01T09:43:09.977Z,99223.00
2023-03-01T09:45:45.312Z,99211.00
2023-03-01T09:48:24.570Z,99245.00
2023-03-01T09:50:55.601Z,99203.00
2023-03-01T09:53:34.294Z,99215.00
2023-03-01T09:56:20.209Z,99206.00
2023-03-01T09:59:23.354Z,99196.00
2023-03-01T10:02:24.344Z,99191.00
2023-03-01T10:05:11.592Z,99188.00
2023-03-01T10:08:07.477Z,99180.00
2023-03-01T10:10:45.725Z,99177.00
2023-03-01T10:13:40.357Z,99158.00
2023-03-01T10:16:40.243Z,99166.00
2023-03-01T10:19:24.427Z,99167.00
2023-03-01T10:21:59.285Z,99157.00
2023-03-01T10:24:35.536Z,99158.00
2023-03-01T10:27:18.779Z,99158.00
2023-03-01T10:30:04.151Z,99147.00
2023-03-01T10:32:35.739Z,99142.00
2023-03-01T10:35:29.476Z,99134.00
2023-03-01T10:38:07.226Z,99134.00
2023-03-01T10:41:10.975Z,99139.00
2023-03-01T10:43:58.832Z,99132.00
2023-03-01T10:46:38.280Z,99128.00
2023-03-01T10:49:22.813Z,99125.00
2023-03-01T10:51:54.964Z,99131.00
2023-03-01T10:54:32.287Z,99131.00
2023-03-01T10:57:06.280Z,99132.00
2023-03-01T10:59:39.539Z,99105.00
2023-03-01T11:02:31.686Z,99101.00
2023-03-01T11:05:18.040Z,99091.00
2023-03-01T11:07:58.041Z,99097.00
2023-03-01T11:10:37.434Z,99091.00
2023-03-01T11:13:19.789Z,99081.00
2023-03-01T11:16:11.409Z,99076.00
2023-03-01T11:18:48.178Z,99074.00
2023-03-01T11:21:19.444Z,99074.00
2023-03-01T11:23:50.404Z,99071.00
2023-03-01T11:26:22.365Z,99054.00
2023-03-01T11:29:00.173Z,99051.00
2023-03-01T11:31:32.433Z,99054.00
2023-03-01T11:34:25.273Z,99048.00
2023-03-01T11:37:03.294Z,99068.00
2023-03-01T11:40:17.293Z,99043.00
2023-03-01T11:43:17.241Z,99027.00
2023-03-01T11:46:39.905Z,99031.00
2023-03-01T11:49:46.894Z,99021.00
2023-03-01T11:52:30.645Z,99011.00
2023-03-01T11:55:32.339Z,99011.00
2023-03-01T11:58:40.292Z,99005.00
2023-03-01T12:01:30.280Z,99002.00
2023-03-01T12:04:33.227Z,98993.00
2023-03-01T12:07:19.806Z,98986.00
2023-03-01T12:10:29.326Z,98986.00
2023-03-01T12:13:28.763Z,98981.00
2023-03-01T12:16:38.461Z,98971.00
2023-03-01T12:19:36.933Z,98963.00
2023-03-01T12:22:31.386Z,98958.00
2023-03-01T12:25:18.442Z,98957.00
2023-03-01T12:28:28.512Z,98955.00
2023-03-01T12:31:14.640Z,98935.00
2023-03-01T12:33:58.796Z,98941.00
2023-03-01T12:36:53.554Z,98937.00
2023-03-01T12:39:52.394Z,98940.00
2023-03-01T12:42:51.271Z,98925.00
2023-03-01T12:45:36.336Z,98922.00
2023-03-01T12:48:33.108Z,98922.00
2023-03-01T12:51:11.864Z,98905.00
2023-03-01T12:53:50.088Z,98900.00
2023-03-01T12:56:26.609Z,98901.00
2023-03-01T12:59:29.520Z,98894.00
2023-03-01T13:02:24.861Z,98889.00
2023-03-01T13:05:07.711Z,98881.00
2023-03-01T13:08:03.027Z,98879.00
2023-03-01T13:10:54.951Z,98863.00
2023-03-01T13:13:28.183Z,98871.00
2023-03-01T13:16:31.344Z,98876.00
2023-03-01T13:19:19.991Z,98876.00
2023-03-01T13:21:55.652Z,98882.00
2023-03-01T13:24:38.936Z,98881.00
2023-03-01T13:27:11.902Z,98880.00
2023-03-01T13:29:57.489Z,98877.00
2023-03-01T13:32:43.562Z,98875.00
2023-03-01T13:35:21.409Z,98880.00
2023-03-01T13:37:52.284Z,98872.00
2023-03-01T13:40:24.593Z,98877.00
2023-03-01T13:43:05.320Z,98878.00
2023-03-01T13:45:42.438Z,98874.00
2023-03-01T13:48:25.422Z,98872.00
2023-03-01T13:51:02.273Z,98875.00
2023-03-01T13:53:38.377Z,98864.00
2023-03-01T13:56:27.084Z,98869.00
2023-03-01T13:59:06.638Z,98868.00
2023-03-01T14:01:38.087Z,98882.00
2023-03-01T14:04:26.667Z,98895.00
2023-03-01T14:07:25.281Z,98863.00
2023-03-01T14:10:07.578Z,98861.00
2023-03-01T14:12:44.176Z,98864.00
2023-03-01T14:15:43.725Z,98856.00
2023-03-01T14:18:23.088Z,98868.00
2023-03-01T14:20:54.084Z,98859.00
2023-03-01T14:23:25.735Z,98861.00
2023-03-01T14:25:58.770Z,98861.00
2023-03-01T14:28:34.417Z,98869.00
2023-03-01T14:31:33.032Z,98870.00
2023-03-01T14:34:07.294Z,98875.00
2023-03-01T14:36:38.162Z,98868.00
2023-03-01T14:39:26.970Z,98883.00
2023-03-01T14:42:10.629Z,98879.00
2023-03-01T14:44:49.489Z,98893.00
2023-03-01T14:47:40.891Z,98891.00
2023-03-01T14:50:30.696Z,98891.00
2023-03-01T14:53:06.686Z,98891.00
2023-03-01T14:55:43.664Z,98905.00
2023-03-01T14:58:19.523Z,98887.00
2023-03-01T15:01:00.880Z,98890.00
2023-03-01T15:03:58.025Z,98888.00
2023-03-01T15:06:29.796Z,98893.00
2023-03-01T15:09:01.294Z,98893.00
2023-03-01T15:11:33.940Z,98891.00
2023-03-01T15:15:02.678Z,98889.00
2023-03-01T15:17:37.216Z,98885.00
2023-03-01T15:20:22.745Z,98889.00
2023-03-01T15:22:56.666Z,98884.00
2023-03-01T15:25:30.268Z,98884.00
2023-03-01T15:28:03.581Z,98890.00
2023-03-01T15:30:38.313Z,98888.00
2023-03-01T15:33:29.463Z,98885.00
2023-03-01T15:36:04.556Z,98899.00
2023-03-01T15:38:57.735Z,98898.00
2023-03-01T15:41:46.674Z,98894.00
2023-03-01T15:44:29.985Z,98889.00
2023-03-01T15:47:24.002Z,98882.00
2023-03-01T15:49:56.899Z,98889.00
2023-03-01T15:52:40.845Z,98876.00
2023-03-01T15:55:34.092Z,98872.00
2023-03-01T15:58:11.680Z,98876.00
2023-03-01T16:00:59.095Z,98869.00
2023-03-01T16:03:31.026Z,98867.00
2023-03-01T16:06:02.033Z,98847.00
2023-03-01T16:08:32.933Z,98854.00
2023-03-01T16:11:06.848Z,98856.00
2023-03-01T16:13:38.217Z,98862.00
2023-03-01T16:16:15.901Z,98861.00
2023-03-01T16:18:47.926Z,98872.00
2023-03-01T16:21:25.279Z,98861.00
2023-03-01T16:23:56.218Z,98863.00
2023-03-01T16:26:27.192Z,98861.00
2023-03-01T16:28:59.163Z,98858.00
2023-03-01T16:31:30.637Z,98871.00
2023-03-01T16:34:01.920Z,98867.00
2023-03-01T16:36:32.905Z,98867.00
2023-03-01T16:39:04.547Z,98863.00
2023-03-01T16:41:35.448Z,98861.00
2023-03-01T16:44:06.542Z,98868.00
2023-03-01T16:46:37.624Z,98875.00
2023-03-01T16:49:08.861Z,98875.00
2023-03-01T16:51:39.744Z,98863.00
2023-03-01T16:54:11.129Z,98878.00
2023-03-01T16:56:42.007Z,98886.00
2023-03-01T16:59:13.057Z,98882.00
2023-03-01T17:01:43.978Z,98892.00
2023-03-01T17:04:19.341Z,98888.00
2023-03-01T17:06:51.360Z,98894.00
2023-03-01T17:09:23.070Z,98910.00
2023-03-01T17:11:55.226Z,98907.00
2023-03-01T17:14:26.123Z,98902.00
2023-03-01T17:16:57.093Z,98917.00
2023-03-01T17:19:28.669Z,98922.00
2023-03-01T17:22:01.211Z,98916.00
2023-03-01T17:24:39.781Z,98914.00
2023-03-01T17:27:13.213Z,98925.00
2023-03-01T17:29:44.311Z,98930.00
2023-03-01T17:32:15.440Z,98933.00
2023-03-01T17:34:46.784Z,98938.00
2023-03-01T17:37:17.694Z,98936.00
2023-03-01T17:39:48.571Z,98936.00
2023-03-01T17:42:19.446Z,98940.00
2023-03-01T17:44:51.230Z,98942.00
2023-03-01T17:47:22.321Z,98939.00
2023-03-01T17:49:53.198Z,98963.00
2023-03-01T17:52:24.050Z,98946.00
2023-03-01T17:54:54.931Z,98951.00
2023-03-01T17:57:25.938Z,98949.00
2023-03-01T17:59:56.963Z,98943.00
2023-03-01T18:02:28.617Z,98935.00
2023-03-01T18:04:59.900Z,98944.00
2023-03-01T18:07:32.622Z,98938.00
2023-03-01T18:10:05.083Z,98934.00
2023-03-01T18:12:35.995Z,98935.00
2023-03-01T18:15:09.232Z,98941.00
2023-03-01T18:17:40.164Z,98933.00
2023-03-01T18:20:13.398Z,98941.00
2023-03-01T18:22:44.565Z,98946.00
2023-03-01T18:25:15.654Z,98943.00
2023-03-01T18:27:46.579Z,98944.00
2023-03-01T18:30:17.608Z,98948.00
2023-03-01T18:32:48.690Z,98942.00
2023-03-01T18:35:23.867Z,98957.00
2023-03-01T18:37:55.401Z,98953.00
2023-03-01T18:40:26.325Z,98954.00
2023-03-01T18:42:57.201Z,98948.00
2023-03-01T18:45:28.290Z,98950.00
2023-03-01T18:47:59.185Z,98956.00
2023-03-01T18:50:30.548Z,98950.00
2023-03-01T18:53:01.572Z,98943.00
2023-03-01T18:55:37.765Z,98942.00
2023-03-01T18:58:08.803Z,98936.00
2023-03-01T19:00:39.888Z,98931.00
2023-03-01T19:03:11.271Z,98940.00
2023-03-01T19:05:42.155Z,98935.00
2023-03-01T19:08:13.041Z,98947.00
2023-03-01T19:10:43.923Z,98937.00
2023-03-01T19:13:14.833Z,98938.00
2023-03-01T19:15:45.797Z,98943.00
2023-03-01T19:18:17.095Z,98933.00
2023-03-01T19:20:50.632Z,98938.00
2023-03-01T19:23:21.633Z,98936.00
2023-03-01T19:25:52.570Z,98924.00
2023-03-01T19:28:23.418Z,98933.00
2023-03-01T19:31:04.330Z,98925.00
2023-03-01T19:33:36.863Z,98912.00
2023-03-01T19:36:09.525Z,98909.00
2023-03-01T19:38:42.419Z,98910.00
2023-03-01T19:41:17.341Z,98920.00
2023-03-01T19:43:52.066Z,98912.00
2023-03-01T19:46:23.798Z,98923.00
2023-03-01T19:48:54.877Z,98916.00
2023-03-01T19:51:26.505Z,98918.00
2023-03-01T19:53:57.363Z,98923.00
2023-03-01T19:56:28.637Z,98917.00
2023-03-01T19:59:00.709Z,98910.00
2023-03-01T20:01:34.507Z,98913.00
2023-03-01T20:04:06.125Z,98918.00
2023-03-01T20:06:39.033Z,98917.00
2023-03-01T20:09:21.019Z,98920.00
2023-03-01T20:11:52.620Z,98913.00
2023-03-01T20:14:24.333Z,98918.00
2023-03-01T20:16:55.248Z,98912.00
2023-03-01T20:19:26.205Z,98921.00
2023-03-01T20:21:57.287Z,98920.00
2023-03-01T20:24:34.258Z,98919.00
2023-03-01T20:27:05.099Z,98918.00
2023-03-01T20:29:36.598Z,98919.00
2023-03-01T20:32:07.604Z,98910.00
2023-03-01T20:34:38.651Z,98936.00
2023-03-01T20:37:13.226Z,98915.00
2023-03-01T20:39:44.164Z,98910.00
2023-03-01T20:42:15.555Z,98907.00
2023-03-01T20:44:46.603Z,98895.00
2023-03-01T20:47:17.531Z,98896.00
2023-03-01T20:49:52.042Z,98909.00
2023-03-01T20:52:23.022Z,98907.00
2023-03-01T20:54:53.996Z,98910.00
2023-03-01T20:57:24.922Z,98902.00
2023-03-01T20:59:55.813Z,98895.00
2023-03-01T21:02:26.909Z,98899.00
2023-03-01T21:04:57.843Z,98903.00
2023-03-01T21:07:28.736Z,98898.00
2023-03-01T21:09:59.672Z,98899.00
2023-03-01T21:12:31.246Z,98895.00
2023-03-01T21:15:02.179Z,98904.00
2023-03-01T21:17:33.797Z,98904.00
2023-03-01T21:20:05.981Z,98894.00
2023-03-01T21:22:37.004Z,98896.00
2023-03-01T21:25:08.515Z,98902.00
2023-03-01T21:27:39.651Z,98904.00
2023-03-01T21:30:11.775Z,98893.00
2023-03-01T21:32:43.017Z,98889.00
2023-03-01T21:35:14.029Z,98893.00
2023-03-01T21:37:44.933Z,98893.00
2023-03-01T21:40:16.054Z,98889.00
2023-03-01T21:42:49.598Z,98885.00
2023-03-01T21:45:20.851Z,98880.00
2023-03-01T21:47:51.759Z,98885.00
2023-03-01T21:50:22.646Z,98879.00
2023-03-01T21:52:53.491Z,98894.00
2023-03-01T21:55:24.447Z,98881.00
2023-03-01T21:57:55.324Z,98873.00
2023-03-01T22:00:28.053Z,98867.00
2023-03-01T22:02:58.968Z,98868.00
2023-03-01T22:05:29.878Z,98868.00
2023-03-01T22:08:01.176Z,98879.00
2023-03-01T22:10:32.298Z,98871.00
2023-03-01T22:13:03.171Z,98880.00
2023-03-01T22:15:34.007Z,98877.00
2023-03-01T22:18:05.209Z,98881.00
2023-03-01T22:20:36.919Z,98865.00
2023-03-01T22:23:08.224Z,98875.00
2023-03-01T22:25:42.737Z,98874.00
2023-03-01T22:28:14.680Z,98868.00
2023-03-01T22:30:45.656Z,98871.00
2023-03-01T22:33:16.577Z,98875.00
2023-03-01T22:35:47.608Z,98881.00
2023-03-01T22:38:18.459Z,98877.00
2023-03-01T22:41:01.489Z,98880.00
2023-03-01T22:43:33.984Z,98872.00
2023-03-01T22:46:17.726Z,98868.00
2023-03-01T22:48:48.773Z,98882.00
2023-03-01T22:51:30.315Z,98871.00
2023-03-01T22:54:01.824Z,98874.00
2023-03-01T22:56:35.376Z,98868.00
2023-03-01T22:59:10.538Z,98869.00
2023-03-01T23:01:46.515Z,98867.00
2023-03-01T23:04:21.002Z,98869.00
2023-03-01T23:06:54.037Z,98868.00
2023-03-01T23:09:34.344Z,98875.00
2023-03-01T23:12:07.497Z,98866.00
2023-03-01T23:14:39.451Z,98871.00
2023-03-01T23:17:10.990Z,98868.00
2023-03-01T23:19:41.892Z,98870.00
2023-03-01T23:22:12.896Z,98863.00
2023-03-01T23:24:43.894Z,98863.00
2023-03-01T23:27:16.907Z,98864.00
2023-03-01T23:29:47.810Z,98852.00
2023-03-01T23:32:18.841Z,98855.00
2023-03-01T23:34:49.762Z,98861.00
2023-03-01T23:37:20.696Z,98854.00
2023-03-01T23:39:51.534Z,98853.00
2023-03-01T23:42:22.419Z,98854.00
2023-03-01T23:44:53.292Z,98858.00
2023-03-01T23:47:24.216Z,98849.00
2023-03-01T23:49:57.182Z,98856.00
2023-03-01T23:52:28.108Z,98852.00
2023-03-01T23:55:00.067Z,98853.00
2023-03-01T23:57:30.957Z,98857.00
